createdAt,value
2022-08-16T00:00:22.832Z,6.40
2022-08-16T00:03:24.427Z,6.70
2022-08-16T00:06:26.152Z,6.70
2022-08-16T00:09:28.275Z,6.63
2022-08-16T00:12:31.417Z,6.05
2022-08-16T00:15:51.342Z,6.25
2022-08-16T00:18:55.831Z,6.22
2022-08-16T00:22:03.095Z,5.93
2022-08-16T00:25:13.620Z,6.22
2022-08-16T00:28:15.209Z,6.40
2022-08-16T00:31:16.846Z,5.60
2022-08-16T00:34:44.699Z,6.28
2022-08-16T00:37:58.865Z,6.10
2022-08-16T00:41:01.883Z,6.20
2022-08-16T00:44:10.975Z,6.00
2022-08-16T00:47:16.751Z,6.05
2022-08-16T00:50:36.080Z,6.07
2022-08-16T00:53:38.981Z,6.28
2022-08-16T00:56:57.617Z,6.15
2022-08-16T01:00:01.866Z,6.35
2022-08-16T01:03:12.742Z,5.95
2022-08-16T01:06:40.886Z,6.45
2022-08-16T01:09:42.894Z,6.18
2022-08-16T01:12:44.827Z,6.47
2022-08-16T01:15:53.548Z,6.22
2022-08-16T01:19:05.232Z,6.35
2022-08-16T01:22:47.049Z,6.57
2022-08-16T01:25:45.824Z,6.55
2022-08-16T01:29:09.783Z,6.68
2022-08-16T01:32:12.319Z,6.70
2022-08-16T01:35:39.750Z,5.82
2022-08-16T01:38:49.130Z,6.10
2022-08-16T01:41:55.088Z,5.90
2022-08-16T01:44:57.366Z,6.30
2022-08-16T01:47:59.036Z,6.47
2022-08-16T01:51:09.333Z,6.47
2022-08-16T01:54:31.255Z,6.50
2022-08-16T01:57:33.724Z,6.22
2022-08-16T02:00:38.006Z,5.43
2022-08-16T02:03:40.832Z,6.25
2022-08-16T02:06:45.913Z,6.25
2022-08-16T02:09:57.080Z,5.97
2022-08-16T02:13:01.052Z,6.13
2022-08-16T02:16:05.158Z,6.15
2022-08-16T02:19:21.328Z,6.43
2022-08-16T02:22:34.706Z,6.00
2022-08-16T02:25:50.892Z,5.68
2022-08-16T02:28:54.489Z,5.82
2022-08-16T02:32:04.030Z,6.35
2022-08-16T02:35:23.005Z,6.30
2022-08-16T02:38:26.675Z,6.10
2022-08-16T02:41:28.325Z,6.35
2022-08-16T02:44:31.403Z,5.82
2022-08-16T02:48:01.618Z,5.88
2022-08-16T02:51:06.056Z,5.88
2022-08-16T02:54:16.791Z,5.82
2022-08-16T02:57:21.042Z,5.63
2022-08-16T03:00:33.754Z,5.88
2022-08-16T03:04:39.353Z,5.15
2022-08-16T03:07:00.096Z,5.63
2022-08-16T03:10:33.474Z,5.75
2022-08-16T03:13:40.266Z,5.15
2022-08-16T03:16:58.765Z,5.95
2022-08-16T03:20:05.777Z,5.20
2022-08-16T03:23:12.163Z,5.60
2022-08-16T03:26:18.004Z,5.75
2022-08-16T03:29:20.618Z,5.35
2022-08-16T03:32:26.257Z,5.07
2022-08-16T03:35:33.564Z,5.55
2022-08-16T03:38:43.519Z,5.18
2022-08-16T03:41:59.211Z,5.57
2022-08-16T03:45:03.872Z,5.40
2022-08-16T03:48:10.463Z,5.60
2022-08-16T03:51:18.194Z,5.30
2022-08-16T03:54:31.673Z,5.07
2022-08-16T03:57:36.312Z,4.88
2022-08-16T04:00:42.280Z,5.00
2022-08-16T04:03:50.622Z,5.20
2022-08-16T04:06:52.136Z,5.10
2022-08-16T04:09:58.672Z,5.40
2022-08-16T04:13:04.479Z,5.50
2022-08-16T04:16:09.197Z,5.80
2022-08-16T04:19:31.698Z,5.13
2022-08-16T04:22:36.128Z,5.20
2022-08-16T04:25:41.467Z,5.40
2022-08-16T04:28:56.658Z,5.38
2022-08-16T04:32:06.820Z,5.18
2022-08-16T04:35:16.473Z,5.60
2022-08-16T04:38:21.187Z,5.05
2022-08-16T04:41:32.829Z,5.10
2022-08-16T04:44:54.271Z,5.55
2022-08-16T04:48:00.086Z,5.28
2022-08-16T04:51:12.044Z,5.07
2022-08-16T04:54:21.533Z,4.65
2022-08-16T04:57:23.128Z,4.97
2022-08-16T05:00:33.664Z,5.35
2022-08-16T05:04:01.146Z,5.13
2022-08-16T05:07:20.564Z,5.70
2022-08-16T05:10:40.019Z,5.43
2022-08-16T05:13:45.045Z,5.00
2022-08-16T05:16:52.120Z,5.00
2022-08-16T05:19:57.275Z,5.50
2022-08-16T05:23:04.070Z,5.20
2022-08-16T05:26:19.967Z,5.05
2022-08-16T05:29:24.984Z,5.10
2022-08-16T05:32:48.391Z,5.45
2022-08-16T05:35:54.867Z,5.18
2022-08-16T05:39:15.757Z,5.80
2022-08-16T05:42:19.717Z,5.13
2022-08-16T05:45:23.832Z,5.13
2022-08-16T05:48:29.624Z,5.45
2022-08-16T05:51:41.683Z,5.32
2022-08-16T05:54:47.459Z,5.32
2022-08-16T05:57:52.839Z,5.25
2022-08-16T06:00:56.287Z,5.35
2022-08-16T06:03:59.798Z,5.25
2022-08-16T06:07:25.061Z,5.20
2022-08-16T06:11:09.859Z,4.93
2022-08-16T06:14:12.957Z,5.03
2022-08-16T06:17:18.531Z,4.82
2022-08-16T06:20:35.805Z,4.88
2022-08-16T06:23:56.764Z,4.80
2022-08-16T06:27:03.729Z,5.18
2022-08-16T06:30:09.504Z,5.13
2022-08-16T06:33:19.604Z,4.85
2022-08-16T06:36:26.770Z,5.30
2022-08-16T06:39:57.966Z,4.80
2022-08-16T06:43:07.911Z,4.78
2022-08-16T06:46:34.732Z,4.97
2022-08-16T06:49:52.665Z,5.10
2022-08-16T06:53:00.597Z,4.63
2022-08-16T06:56:29.265Z,5.30
2022-08-16T06:59:58.199Z,4.68
2022-08-16T07:03:26.706Z,4.90
2022-08-16T07:06:31.361Z,5.07
2022-08-16T07:09:35.798Z,5.45
2022-08-16T07:12:47.535Z,5.18
2022-08-16T07:16:00.439Z,5.47
2022-08-16T07:19:04.100Z,5.13
2022-08-16T07:22:36.677Z,4.97
2022-08-16T07:25:34.069Z,4.95
2022-08-16T07:28:42.468Z,5.00
2022-08-16T07:31:47.026Z,5.00
2022-08-16T07:34:52.582Z,5.10
2022-08-16T07:37:54.795Z,5.03
2022-08-16T07:41:09.548Z,5.15
2022-08-16T07:44:16.382Z,5.05
2022-08-16T07:47:19.618Z,5.15
2022-08-16T07:50:55.984Z,5.25
2022-08-16T07:54:02.643Z,5.13
2022-08-16T07:57:12.185Z,4.90
2022-08-16T08:00:18.821Z,4.75
2022-08-16T08:03:24.020Z,4.97
2022-08-16T08:06:38.421Z,4.75
2022-08-16T08:09:48.976Z,5.10
2022-08-16T08:12:55.093Z,4.95
2022-08-16T08:16:00.609Z,5.60
2022-08-16T08:19:03.940Z,4.70
2022-08-16T08:22:09.922Z,5.15
2022-08-16T08:28:51.123Z,5.22
2022-08-16T08:31:53.962Z,4.72
2022-08-16T08:35:03.385Z,4.63
2022-08-16T08:38:08.245Z,4.82
2022-08-16T08:41:18.924Z,4.40
2022-08-16T08:44:29.449Z,4.65
2022-08-16T08:47:37.485Z,4.63
2022-08-16T08:50:40.334Z,5.05
2022-08-16T08:53:57.568Z,4.90
2022-08-16T08:57:03.415Z,4.68
2022-08-16T09:00:30.014Z,4.55
2022-08-16T09:03:38.553Z,4.53
2022-08-16T09:06:43.218Z,4.18
2022-08-16T09:09:46.353Z,5.32
2022-08-16T09:12:49.539Z,4.75
2022-08-16T09:15:58.991Z,4.90
2022-08-16T09:19:04.100Z,4.70
2022-08-16T09:22:06.997Z,4.60
2022-08-16T09:25:26.179Z,4.57
2022-08-16T09:29:15.930Z,4.75
2022-08-16T09:31:59.297Z,5.00
2022-08-16T09:35:01.728Z,4.70
2022-08-16T09:38:04.615Z,5.00
2022-08-16T09:41:14.986Z,4.50
2022-08-16T09:45:11.144Z,4.82
2022-08-16T09:47:56.651Z,4.38
2022-08-16T09:50:59.486Z,5.18
2022-08-16T09:54:04.757Z,5.07
2022-08-16T09:57:07.081Z,4.85
2022-08-16T10:00:44.917Z,5.05
2022-08-16T10:03:35.999Z,5.05
2022-08-16T10:06:38.652Z,5.22
2022-08-16T10:09:55.820Z,4.75
2022-08-16T10:16:16.082Z,4.50
2022-08-16T10:19:24.126Z,5.15
2022-08-16T10:22:28.380Z,4.93
2022-08-16T10:27:16.796Z,5.07
2022-08-16T10:28:52.001Z,5.10
2022-08-16T10:31:54.139Z,5.00
2022-08-16T10:34:58.594Z,5.10
2022-08-16T10:38:00.453Z,5.25
2022-08-16T10:41:02.470Z,5.75
2022-08-16T10:44:04.565Z,5.15
2022-08-16T10:47:11.708Z,5.22
2022-08-16T10:50:19.508Z,4.80
2022-08-16T10:53:21.964Z,4.97
2022-08-16T10:56:52.266Z,4.82
2022-08-16T10:59:54.526Z,4.72
2022-08-16T11:03:02.426Z,4.45
2022-08-16T11:06:07.495Z,4.40
2022-08-16T11:09:29.160Z,4.45
2022-08-16T11:12:30.940Z,4.28
2022-08-16T11:15:34.343Z,4.85
2022-08-16T11:18:48.400Z,4.60
2022-08-16T11:22:22.815Z,4.97
2022-08-16T11:32:07.514Z,5.35
2022-08-16T11:35:14.394Z,4.97
2022-08-16T11:38:46.333Z,5.28
2022-08-16T11:41:43.579Z,5.20
2022-08-16T11:44:52.620Z,5.18
2022-08-16T11:47:55.326Z,5.63
2022-08-16T11:50:57.420Z,5.38
2022-08-16T11:53:59.121Z,5.22
2022-08-16T11:57:00.820Z,4.90
2022-08-16T12:00:06.864Z,5.28
2022-08-16T12:03:14.218Z,5.60
2022-08-16T12:06:25.391Z,5.18
2022-08-16T12:09:32.050Z,5.88
2022-08-16T12:12:34.777Z,5.22
2022-08-16T12:15:36.499Z,5.50
2022-08-16T12:18:40.502Z,5.50
2022-08-16T12:21:58.681Z,5.70
2022-08-16T12:25:01.320Z,6.05
2022-08-16T12:28:06.560Z,5.40
2022-08-16T12:31:08.252Z,5.43
2022-08-16T12:34:11.993Z,5.55
2022-08-16T12:37:24.634Z,5.43
2022-08-16T12:40:31.866Z,5.53
2022-08-16T12:43:33.600Z,5.30
2022-08-16T12:46:35.258Z,5.20
2022-08-16T12:49:41.732Z,5.57
2022-08-16T12:52:52.506Z,5.03
2022-08-16T12:55:54.975Z,4.85
2022-08-16T12:58:58.150Z,5.28
2022-08-16T13:02:02.582Z,5.10
2022-08-16T13:05:08.437Z,5.15
2022-08-16T13:08:20.215Z,5.43
2022-08-16T13:11:35.552Z,5.50
2022-08-16T13:14:42.309Z,5.22
2022-08-16T13:17:45.679Z,5.47
2022-08-16T13:20:51.941Z,5.47
2022-08-16T13:23:55.422Z,5.38
2022-08-16T13:26:57.582Z,5.57
2022-08-16T13:29:59.163Z,5.28
2022-08-16T13:33:01.668Z,5.10
2022-08-16T13:39:35.278Z,5.50
2022-08-16T13:42:43.314Z,5.43
2022-08-16T13:45:45.281Z,5.82
2022-08-16T13:48:52.245Z,5.30
2022-08-16T13:51:54.290Z,5.50
2022-08-16T13:54:56.193Z,5.80
2022-08-16T13:58:34.883Z,5.60
2022-08-16T14:01:20.060Z,5.43
2022-08-16T14:04:27.415Z,5.40
2022-08-16T14:07:29.463Z,5.55
2022-08-16T14:10:32.485Z,5.30
2022-08-16T14:13:34.663Z,5.32
2022-08-16T14:16:36.187Z,5.05
2022-08-16T14:19:44.778Z,5.32
2022-08-16T14:22:52.484Z,5.00
2022-08-16T14:25:57.538Z,5.15
2022-08-16T14:29:03.149Z,5.15
2022-08-16T14:32:09.236Z,5.53
2022-08-16T14:35:29.214Z,5.50
2022-08-16T14:38:39.538Z,6.07
2022-08-16T14:41:41.386Z,5.53
2022-08-16T14:44:42.972Z,5.45
2022-08-16T14:47:45.315Z,5.40
2022-08-16T14:50:47.192Z,5.22
2022-08-16T14:53:49.805Z,4.85
2022-08-16T14:57:01.297Z,5.13
2022-08-16T15:00:09.365Z,4.68
2022-08-16T15:03:12.877Z,5.38
2022-08-16T15:06:16.354Z,5.35
2022-08-16T15:09:18.265Z,4.65
2022-08-16T15:12:26.464Z,4.70
2022-08-16T15:15:32.320Z,4.90
2022-08-16T15:18:36.982Z,5.45
2022-08-16T15:21:40.973Z,5.63
2022-08-16T15:24:43.422Z,4.93
2022-08-16T15:27:45.933Z,4.95
2022-08-16T15:31:00.908Z,5.10
2022-08-16T15:34:05.157Z,4.57
2022-08-16T15:37:06.649Z,5.00
2022-08-16T15:40:26.878Z,4.63
2022-08-16T15:43:40.009Z,4.88
2022-08-16T15:46:57.054Z,5.03
2022-08-16T15:50:04.488Z,4.55
2022-08-16T15:53:16.642Z,4.60
2022-08-16T15:56:18.862Z,5.00
2022-08-16T15:59:24.485Z,4.80
2022-08-16T16:02:31.284Z,4.78
2022-08-16T16:05:34.102Z,4.70
2022-08-16T16:08:49.093Z,5.28
2022-08-16T16:11:53.092Z,4.90
2022-08-16T16:14:55.415Z,4.38
2022-08-16T16:17:57.076Z,4.50
2022-08-16T16:21:20.192Z,4.60
2022-08-16T16:24:30.522Z,4.50
2022-08-16T16:27:33.053Z,4.55
2022-08-16T16:30:44.630Z,4.10
2022-08-16T16:33:51.180Z,4.50
2022-08-16T16:36:52.900Z,4.55
2022-08-16T16:39:56.897Z,4.82
2022-08-16T16:43:00.897Z,4.40
2022-08-16T16:46:32.714Z,4.38
2022-08-16T16:49:27.233Z,4.30
2022-08-16T16:52:44.127Z,4.60
2022-08-16T16:55:52.807Z,4.20
2022-08-16T16:58:57.846Z,4.10
2022-08-16T17:02:41.317Z,4.13
2022-08-16T17:05:32.376Z,4.00
2022-08-16T17:08:34.541Z,3.90
2022-08-16T17:11:38.707Z,4.30
2022-08-16T17:14:42.775Z,4.20
2022-08-16T17:17:59.679Z,4.55
2022-08-16T17:21:04.887Z,4.22
2022-08-16T17:24:17.647Z,4.40
2022-08-16T17:27:33.104Z,4.10
2022-08-16T17:30:45.074Z,3.92
2022-08-16T17:33:54.598Z,4.20
2022-08-16T17:36:57.171Z,4.75
2022-08-16T17:40:04.101Z,3.80
2022-08-16T17:43:30.087Z,4.32
2022-08-16T17:46:50.683Z,4.35
2022-08-16T17:49:53.548Z,4.32
2022-08-16T17:52:55.999Z,3.90
2022-08-16T18:00:59.651Z,3.90
2022-08-16T18:04:07.520Z,4.45
2022-08-16T18:07:11.022Z,4.53
2022-08-16T18:10:13.427Z,4.10
2022-08-16T18:13:31.629Z,4.30
2022-08-16T18:16:33.692Z,4.40
2022-08-16T18:19:35.633Z,4.30
2022-08-16T18:22:37.465Z,4.70
2022-08-16T18:25:42.402Z,4.55
2022-08-16T18:28:43.946Z,4.30
2022-08-16T18:31:48.852Z,4.32
2022-08-16T18:34:50.406Z,4.10
2022-08-16T18:37:52.025Z,4.30
2022-08-16T18:40:53.901Z,4.90
2022-08-16T18:44:24.988Z,4.65
2022-08-16T18:47:17.008Z,4.57
2022-08-16T18:50:19.456Z,4.65
2022-08-16T18:53:22.311Z,4.95
2022-08-16T18:56:24.007Z,4.63
2022-08-16T18:59:45.795Z,5.00
2022-08-16T19:02:58.311Z,4.60
2022-08-16T19:06:05.723Z,4.60
2022-08-16T19:09:07.276Z,4.45
2022-08-16T19:12:09.060Z,4.78
2022-08-16T19:15:16.100Z,4.40
2022-08-16T19:18:18.461Z,4.40
2022-08-16T19:21:19.978Z,5.07
2022-08-16T19:24:21.507Z,4.75
2022-08-16T19:27:23.670Z,4.57
2022-08-16T19:30:25.409Z,4.45
2022-08-16T19:33:26.990Z,4.78
2022-08-16T19:36:36.144Z,4.80
2022-08-16T19:39:38.922Z,4.50
2022-08-16T19:42:46.075Z,4.85
2022-08-16T19:45:48.430Z,5.00
2022-08-16T19:48:49.950Z,4.90
2022-08-16T19:51:51.557Z,4.65
2022-08-16T19:54:54.901Z,4.70
2022-08-16T19:57:56.668Z,4.50
2022-08-16T20:00:58.168Z,4.88
2022-08-16T20:04:00.204Z,4.80
2022-08-16T20:07:02.014Z,5.20
2022-08-16T20:10:05.836Z,5.18
2022-08-16T20:13:16.191Z,4.85
2022-08-16T20:16:17.714Z,4.75
2022-08-16T20:19:19.435Z,5.05
2022-08-16T20:22:42.230Z,4.85
2022-08-16T20:25:49.622Z,5.00
2022-08-16T20:28:54.346Z,4.60
2022-08-16T20:31:56.775Z,4.93
2022-08-16T20:34:58.353Z,4.78
2022-08-16T20:38:01.708Z,4.80
2022-08-16T20:41:03.593Z,5.10
2022-08-16T20:44:05.173Z,4.80
2022-08-16T20:47:10.241Z,4.53
2022-08-16T20:50:11.749Z,4.75
2022-08-16T20:53:13.330Z,5.05
2022-08-16T20:56:15.004Z,5.00
2022-08-16T20:59:16.977Z,5.00
2022-08-16T21:02:26.050Z,5.00
2022-08-16T21:05:31.090Z,5.18
2022-08-16T21:08:52.080Z,5.20
2022-08-16T21:11:57.291Z,4.95
2022-08-16T21:15:05.226Z,4.95
2022-08-16T21:18:06.760Z,4.72
2022-08-16T21:21:08.515Z,4.68
2022-08-16T21:24:10.095Z,5.15
2022-08-16T21:27:12.379Z,4.72
2022-08-16T21:30:15.816Z,4.80
2022-08-16T21:33:20.375Z,4.85
2022-08-16T21:36:35.530Z,4.80
2022-08-16T21:39:38.782Z,4.80
2022-08-16T21:42:43.234Z,5.20
2022-08-16T21:45:46.468Z,5.13
2022-08-16T21:48:47.972Z,4.80
2022-08-16T21:51:50.798Z,4.55
2022-08-16T21:54:56.396Z,4.85
2022-08-16T21:57:58.382Z,5.45
2022-08-16T22:01:01.312Z,5.13
2022-08-16T22:04:38.045Z,5.13
2022-08-16T22:07:25.961Z,5.20
2022-08-16T22:11:06.008Z,5.28
2022-08-16T22:13:57.635Z,5.03
2022-08-16T22:17:00.736Z,5.00
2022-08-16T22:20:02.429Z,4.53
2022-08-16T22:23:12.829Z,4.53
2022-08-16T22:26:15.661Z,4.40
2022-08-16T22:29:17.304Z,4.63
2022-08-16T22:32:18.853Z,4.93
2022-08-16T22:35:20.448Z,4.70
2022-08-16T22:38:54.813Z,4.88
2022-08-16T22:41:45.463Z,4.50
2022-08-16T22:44:47.332Z,5.05
2022-08-16T22:47:49.661Z,4.93
2022-08-16T22:50:51.574Z,4.65
2022-08-16T22:53:53.698Z,5.10
2022-08-16T22:56:57.272Z,4.82
2022-08-16T22:59:58.878Z,4.60
2022-08-16T23:03:06.719Z,5.03
2022-08-16T23:06:10.338Z,4.57
2022-08-16T23:09:11.842Z,4.97
2022-08-16T23:12:14.892Z,4.57
2022-08-16T23:15:19.328Z,4.60
2022-08-16T23:18:27.086Z,4.20
2022-08-16T23:21:28.707Z,4.43
2022-08-16T23:24:30.447Z,4.10
2022-08-16T23:27:42.139Z,4.00
2022-08-16T23:30:43.711Z,3.90
2022-08-16T23:33:45.842Z,4.15
2022-08-16T23:36:47.392Z,3.97
2022-08-16T23:39:48.972Z,3.78
2022-08-16T23:43:02.630Z,3.95
2022-08-16T23:46:06.693Z,3.65
2022-08-16T23:49:58.509Z,4.25
2022-08-16T23:52:45.707Z,4.20
2022-08-16T23:56:00.788Z,4.38
2022-08-16T23:59:05.701Z,4.63
